sensor_id;sensor_type;location;lat;lon;timestamp;temperature;humidity
32366;DHT22;18837;46.832;16.838;2022-11-14T00:00:38;9.90;95.10
32366;DHT22;18837;46.832;16.838;2022-11-14T00:03:05;9.80;93.10
32366;DHT22;18837;46.832;16.838;2022-11-14T00:05:38;9.80;93.10
32366;DHT22;18837;46.832;16.838;2022-11-14T00:08:05;9.80;93.20
32366;DHT22;18837;46.832;16.838;2022-11-14T00:10:30;9.80;92.90
32366;DHT22;18837;46.832;16.838;2022-11-14T00:13:24;9.80;93.10
32366;DHT22;18837;46.832;16.838;2022-11-14T00:19:11;8.80;94.70
32366;DHT22;18837;46.832;16.838;2022-11-14T00:21:36;9.70;92.80
32366;DHT22;18837;46.832;16.838;2022-11-14T00:24:02;9.70;93.10
32366;DHT22;18837;46.832;16.838;2022-11-14T00:26:28;9.80;93.40
32366;DHT22;18837;46.832;16.838;2022-11-14T00:28:54;9.70;93.40
32366;DHT22;18837;46.832;16.838;2022-11-14T00:31:51;9.80;93.30
32366;DHT22;18837;46.832;16.838;2022-11-14T00:34:17;9.80;95.10
32366;DHT22;18837;46.832;16.838;2022-11-14T00:36:42;9.80;93.20
32366;DHT22;18837;46.832;16.838;2022-11-14T00:39:12;9.80;92.90
32366;DHT22;18837;46.832;16.838;2022-11-14T00:41:39;9.90;93.10
32366;DHT22;18837;46.832;16.838;2022-11-14T00:44:05;9.90;93.40
32366;DHT22;18837;46.832;16.838;2022-11-14T00:46:32;9.90;93.70
32366;DHT22;18837;46.832;16.838;2022-11-14T00:52:44;9.80;95.00
32366;DHT22;18837;46.832;16.838;2022-11-14T00:55:10;9.80;95.10
32366;DHT22;18837;46.832;16.838;2022-11-14T00:57:36;9.80;92.90
32366;DHT22;18837;46.832;16.838;2022-11-14T01:00:02;9.80;92.70
32366;DHT22;18837;46.832;16.838;2022-11-14T01:02:28;9.70;93.30
32366;DHT22;18837;46.832;16.838;2022-11-14T01:04:53;9.00;92.60
32366;DHT22;18837;46.832;16.838;2022-11-14T01:07:41;9.80;93.40
32366;DHT22;18837;46.832;16.838;2022-11-14T01:10:07;9.70;95.10
32366;DHT22;18837;46.832;16.838;2022-11-14T01:12:33;9.70;94.20
32366;DHT22;18837;46.832;16.838;2022-11-14T01:14:59;9.70;93.10
32366;DHT22;18837;46.832;16.838;2022-11-14T01:17:25;9.70;93.20
32366;DHT22;18837;46.832;16.838;2022-11-14T01:19:53;9.70;93.30
32366;DHT22;18837;46.832;16.838;2022-11-14T01:26:09;9.70;95.10
32366;DHT22;18837;46.832;16.838;2022-11-14T01:28:37;9.80;95.20
32366;DHT22;18837;46.832;16.838;2022-11-14T01:31:15;9.80;93.60
32366;DHT22;18837;46.832;16.838;2022-11-14T01:33:41;9.80;93.40
32366;DHT22;18837;46.832;16.838;2022-11-14T01:36:08;9.80;93.50
32366;DHT22;18837;46.832;16.838;2022-11-14T01:38:34;9.80;93.40
32366;DHT22;18837;46.832;16.838;2022-11-14T01:41:21;10.00;93.00
32366;DHT22;18837;46.832;16.838;2022-11-14T01:43:48;9.80;95.10
32366;DHT22;18837;46.832;16.838;2022-11-14T01:46:35;9.90;93.10
32366;DHT22;18837;46.832;16.838;2022-11-14T01:49:16;9.80;95.10
32366;DHT22;18837;46.832;16.838;2022-11-14T01:52:01;9.80;95.10
32366;DHT22;18837;46.832;16.838;2022-11-14T01:54:31;9.70;95.10
32366;DHT22;18837;46.832;16.838;2022-11-14T02:00:39;9.80;95.20
32366;DHT22;18837;46.832;16.838;2022-11-14T02:03:06;9.70;95.10
32366;DHT22;18837;46.832;16.838;2022-11-14T02:05:31;9.70;93.70
32366;DHT22;18837;46.832;16.838;2022-11-14T02:07:58;9.70;93.60
32366;DHT22;18837;46.832;16.838;2022-11-14T02:10:23;9.70;93.60
32366;DHT22;18837;46.832;16.838;2022-11-14T02:12:49;9.70;93.60
32366;DHT22;18837;46.832;16.838;2022-11-14T02:15:40;9.70;93.60
32366;DHT22;18837;46.832;16.838;2022-11-14T02:18:06;9.70;95.10
32366;DHT22;18837;46.832;16.838;2022-11-14T02:20:37;9.80;93.80
32366;DHT22;18837;46.832;16.838;2022-11-14T02:23:03;9.80;93.70
32366;DHT22;18837;46.832;16.838;2022-11-14T02:25:29;9.80;93.70
32366;DHT22;18837;46.832;16.838;2022-11-14T02:27:55;9.80;93.40
32366;DHT22;18837;46.832;16.838;2022-11-14T02:30:22;9.90;93.60
32366;DHT22;18837;46.832;16.838;2022-11-14T02:36:29;9.80;95.10
32366;DHT22;18837;46.832;16.838;2022-11-14T02:38:54;9.80;93.40
32366;DHT22;18837;46.832;16.838;2022-11-14T02:41:20;9.80;93.40
32366;DHT22;18837;46.832;16.838;2022-11-14T02:43:46;9.80;93.60
32366;DHT22;18837;46.832;16.838;2022-11-14T02:46:11;9.70;93.60
32366;DHT22;18837;46.832;16.838;2022-11-14T02:48:37;9.70;93.60
32366;DHT22;18837;46.832;16.838;2022-11-14T02:51:24;9.70;93.50
32366;DHT22;18837;46.832;16.838;2022-11-14T02:53:50;9.70;95.20
32366;DHT22;18837;46.832;16.838;2022-11-14T02:56:16;9.70;93.80
32366;DHT22;18837;46.832;16.838;2022-11-14T02:58:41;9.70;93.60
32366;DHT22;18837;46.832;16.838;2022-11-14T03:01:07;9.70;93.70
32366;DHT22;18837;46.832;16.838;2022-11-14T03:03:33;9.70;93.70
32366;DHT22;18837;46.832;16.838;2022-11-14T03:06:20;9.70;93.50
32366;DHT22;18837;46.832;16.838;2022-11-14T03:12:05;9.70;95.30
32366;DHT22;18837;46.832;16.838;2022-11-14T03:14:31;9.70;93.80
32366;DHT22;18837;46.832;16.838;2022-11-14T03:16:56;9.70;93.10
32366;DHT22;18837;46.832;16.838;2022-11-14T03:19:22;9.20;93.20
32366;DHT22;18837;46.832;16.838;2022-11-14T03:21:48;9.70;93.30
32366;DHT22;18837;46.832;16.838;2022-11-14T03:24:38;9.80;93.40
32366;DHT22;18837;46.832;16.838;2022-11-14T03:27:04;9.80;95.20
32366;DHT22;18837;46.832;16.838;2022-11-14T03:29:30;9.80;93.20
32366;DHT22;18837;46.832;16.838;2022-11-14T03:31:55;9.80;93.70
32366;DHT22;18837;46.832;16.838;2022-11-14T03:34:21;9.70;93.30
32366;DHT22;18837;46.832;16.838;2022-11-14T03:36:47;9.70;93.10
32366;DHT22;18837;46.832;16.838;2022-11-14T03:39:12;9.80;93.50
32366;DHT22;18837;46.832;16.838;2022-11-14T03:45:20;9.70;95.30
32366;DHT22;18837;46.832;16.838;2022-11-14T03:47:46;9.70;95.40
32366;DHT22;18837;46.832;16.838;2022-11-14T03:50:12;9.70;93.70
32366;DHT22;18837;46.832;16.838;2022-11-14T03:52:37;9.70;93.70
32366;DHT22;18837;46.832;16.838;2022-11-14T03:55:03;9.70;93.40
32366;DHT22;18837;46.832;16.838;2022-11-14T03:57:29;9.60;93.90
32366;DHT22;18837;46.832;16.838;2022-11-14T04:00:17;9.70;93.70
32366;DHT22;18837;46.832;16.838;2022-11-14T04:02:45;9.70;95.50
32366;DHT22;18837;46.832;16.838;2022-11-14T04:05:13;9.70;93.70
32366;DHT22;18837;46.832;16.838;2022-11-14T04:07:39;9.70;92.70
32366;DHT22;18837;46.832;16.838;2022-11-14T04:10:06;9.70;93.40
32366;DHT22;18837;46.832;16.838;2022-11-14T04:12:31;9.80;94.10
32366;DHT22;18837;46.832;16.838;2022-11-14T04:15:25;9.70;93.60
32366;DHT22;18837;46.832;16.838;2022-11-14T04:21:08;9.80;95.40
32366;DHT22;18837;46.832;16.838;2022-11-14T04:23:33;9.80;93.50
32366;DHT22;18837;46.832;16.838;2022-11-14T04:25:59;9.80;93.60
32366;DHT22;18837;46.832;16.838;2022-11-14T04:28:25;9.70;93.20
32366;DHT22;18837;46.832;16.838;2022-11-14T04:30:50;9.80;93.70
32366;DHT22;18837;46.832;16.838;2022-11-14T04:33:16;9.80;93.70
32366;DHT22;18837;46.832;16.838;2022-11-14T04:36:01;9.80;93.60
32366;DHT22;18837;46.832;16.838;2022-11-14T04:38:26;9.70;93.70
32366;DHT22;18837;46.832;16.838;2022-11-14T04:40:52;9.70;94.40
32366;DHT22;18837;46.832;16.838;2022-11-14T04:43:19;9.70;93.50
32366;DHT22;18837;46.832;16.838;2022-11-14T04:45:46;9.70;93.80
32366;DHT22;18837;46.832;16.838;2022-11-14T04:48:12;9.70;93.80
32366;DHT22;18837;46.832;16.838;2022-11-14T04:54:19;9.70;95.40
32366;DHT22;18837;46.832;16.838;2022-11-14T04:56:44;9.70;93.90
32366;DHT22;18837;46.832;16.838;2022-11-14T04:59:10;9.70;93.80
32366;DHT22;18837;46.832;16.838;2022-11-14T05:01:36;9.70;93.60
32366;DHT22;18837;46.832;16.838;2022-11-14T05:04:02;9.70;93.70
32366;DHT22;18837;46.832;16.838;2022-11-14T05:06:28;9.70;93.40
32366;DHT22;18837;46.832;16.838;2022-11-14T05:09:15;9.80;93.70
32366;DHT22;18837;46.832;16.838;2022-11-14T05:11:41;9.80;95.40
32366;DHT22;18837;46.832;16.838;2022-11-14T05:14:07;9.80;93.50
32366;DHT22;18837;46.832;16.838;2022-11-14T05:16:33;9.80;94.10
32366;DHT22;18837;46.832;16.838;2022-11-14T05:18:58;9.80;93.30
32366;DHT22;18837;46.832;16.838;2022-11-14T05:21:24;9.80;93.70
32366;DHT22;18837;46.832;16.838;2022-11-14T05:30:15;9.70;95.40
32366;DHT22;18837;46.832;16.838;2022-11-14T05:32:41;9.70;93.70
32366;DHT22;18837;46.832;16.838;2022-11-14T05:35:07;9.70;94.70
32366;DHT22;18837;46.832;16.838;2022-11-14T05:37:34;9.70;93.70
32366;DHT22;18837;46.832;16.838;2022-11-14T05:39:59;9.60;93.30
32366;DHT22;18837;46.832;16.838;2022-11-14T05:42:59;9.70;93.70
32366;DHT22;18837;46.832;16.838;2022-11-14T05:45:25;9.70;95.50
32366;DHT22;18837;46.832;16.838;2022-11-14T05:47:51;9.60;93.60
32366;DHT22;18837;46.832;16.838;2022-11-14T05:50:18;9.70;94.10
32366;DHT22;18837;46.832;16.838;2022-11-14T05:52:44;9.60;94.10
32366;DHT22;18837;46.832;16.838;2022-11-14T05:55:10;9.60;93.30
32366;DHT22;18837;46.832;16.838;2022-11-14T05:57:35;9.70;93.90
32366;DHT22;18837;46.832;16.838;2022-11-14T06:03:48;9.70;95.50
32366;DHT22;18837;46.832;16.838;2022-11-14T06:06:17;10.50;95.70
32366;DHT22;18837;46.832;16.838;2022-11-14T06:08:43;9.80;93.90
32366;DHT22;18837;46.832;16.838;2022-11-14T06:11:14;9.80;94.20
32366;DHT22;18837;46.832;16.838;2022-11-14T06:13:41;9.80;95.60
32366;DHT22;18837;46.832;16.838;2022-11-14T06:16:12;9.80;93.90
32366;DHT22;18837;46.832;16.838;2022-11-14T06:18:57;9.80;93.60
32366;DHT22;18837;46.832;16.838;2022-11-14T06:21:24;9.70;94.00
32366;DHT22;18837;46.832;16.838;2022-11-14T06:23:50;9.70;93.90
32366;DHT22;18837;46.832;16.838;2022-11-14T06:28:46;9.70;94.10
32366;DHT22;18837;46.832;16.838;2022-11-14T06:31:12;9.70;94.10
32366;DHT22;18837;46.832;16.838;2022-11-14T06:33:53;9.70;94.30
32366;DHT22;18837;46.832;16.838;2022-11-14T06:39:23;9.70;95.60
32366;DHT22;18837;46.832;16.838;2022-11-14T06:41:49;9.60;94.10
32366;DHT22;18837;46.832;16.838;2022-11-14T06:49:25;9.60;95.50
32366;DHT22;18837;46.832;16.838;2022-11-14T06:52:14;9.70;93.80
32366;DHT22;18837;46.832;16.838;2022-11-14T06:54:40;9.70;95.60
32366;DHT22;18837;46.832;16.838;2022-11-14T06:57:05;9.70;94.10
32366;DHT22;18837;46.832;16.838;2022-11-14T06:59:31;9.70;94.00
32366;DHT22;18837;46.832;16.838;2022-11-14T07:01:57;9.70;94.20
32366;DHT22;18837;46.832;16.838;2022-11-14T07:04:23;9.80;94.10
32366;DHT22;18837;46.832;16.838;2022-11-14T07:06:49;9.80;94.10
32366;DHT22;18837;46.832;16.838;2022-11-14T07:12:56;9.80;95.60
32366;DHT22;18837;46.832;16.838;2022-11-14T07:15:21;9.80;94.10
32366;DHT22;18837;46.832;16.838;2022-11-14T07:17:47;9.70;94.10
32366;DHT22;18837;46.832;16.838;2022-11-14T07:20:15;9.70;94.10
32366;DHT22;18837;46.832;16.838;2022-11-14T07:22:45;9.70;95.70
32366;DHT22;18837;46.832;16.838;2022-11-14T07:25:11;9.70;94.00
32366;DHT22;18837;46.832;16.838;2022-11-14T07:27:56;9.70;94.50
32366;DHT22;18837;46.832;16.838;2022-11-14T07:30:22;9.70;94.10
32366;DHT22;18837;46.832;16.838;2022-11-14T07:32:56;9.70;94.20
32366;DHT22;18837;46.832;16.838;2022-11-14T07:35:22;9.70;94.10
32366;DHT22;18837;46.832;16.838;2022-11-14T07:37:49;9.70;94.00
32366;DHT22;18837;46.832;16.838;2022-11-14T07:40:15;9.70;94.60
32366;DHT22;18837;46.832;16.838;2022-11-14T07:46:28;9.70;95.60
32366;DHT22;18837;46.832;16.838;2022-11-14T07:48:54;9.70;95.70
32366;DHT22;18837;46.832;16.838;2022-11-14T07:51:20;9.70;94.10
32366;DHT22;18837;46.832;16.838;2022-11-14T07:53:45;9.70;94.80
32366;DHT22;18837;46.832;16.838;2022-11-14T07:56:11;9.80;94.00
32366;DHT22;18837;46.832;16.838;2022-11-14T07:58:39;9.80;94.00
32366;DHT22;18837;46.832;16.838;2022-11-14T08:01:33;9.80;94.00
32366;DHT22;18837;46.832;16.838;2022-11-14T08:03:58;9.80;95.60
32366;DHT22;18837;46.832;16.838;2022-11-14T08:06:25;9.80;93.90
32366;DHT22;18837;46.832;16.838;2022-11-14T08:08:51;9.80;93.40
32366;DHT22;18837;46.832;16.838;2022-11-14T08:11:16;9.80;93.90
32366;DHT22;18837;46.832;16.838;2022-11-14T08:14:02;9.80;94.00
32366;DHT22;18837;46.832;16.838;2022-11-14T08:23:03;9.70;95.70
32366;DHT22;18837;46.832;16.838;2022-11-14T08:25:29;9.70;94.20
32366;DHT22;18837;46.832;16.838;2022-11-14T08:27:55;9.70;94.50
32366;DHT22;18837;46.832;16.838;2022-11-14T08:30:21;9.70;93.40
32366;DHT22;18837;46.832;16.838;2022-11-14T08:32:46;9.70;94.30
32366;DHT22;18837;46.832;16.838;2022-11-14T08:35:12;9.70;94.40
32366;DHT22;18837;46.832;16.838;2022-11-14T08:37:56;9.70;94.20
32366;DHT22;18837;46.832;16.838;2022-11-14T08:40:22;9.80;94.20
32366;DHT22;18837;46.832;16.838;2022-11-14T08:42:48;9.80;94.00
32366;DHT22;18837;46.832;16.838;2022-11-14T08:45:13;9.80;94.20
32366;DHT22;18837;46.832;16.838;2022-11-14T08:47:39;9.80;94.30
32366;DHT22;18837;46.832;16.838;2022-11-14T08:50:05;9.90;94.30
32366;DHT22;18837;46.832;16.838;2022-11-14T08:52:59;9.90;94.60
32366;DHT22;18837;46.832;16.838;2022-11-14T08:55:44;9.90;95.50
32366;DHT22;18837;46.832;16.838;2022-11-14T08:58:09;9.90;94.00
32366;DHT22;18837;46.832;16.838;2022-11-14T09:00:35;9.90;94.10
32366;DHT22;18837;46.832;16.838;2022-11-14T09:03:09;9.90;94.20
32366;DHT22;18837;46.832;16.838;2022-11-14T09:05:36;9.90;95.50
32366;DHT22;18837;46.832;16.838;2022-11-14T09:08:02;9.90;94.40
32366;DHT22;18837;46.832;16.838;2022-11-14T09:10:44;9.90;94.10
32366;DHT22;18837;46.832;16.838;2022-11-14T09:13:09;9.90;94.30
32366;DHT22;18837;46.832;16.838;2022-11-14T09:15:35;9.90;94.00
32366;DHT22;18837;46.832;16.838;2022-11-14T09:18:01;9.90;93.80
32366;DHT22;18837;46.832;16.838;2022-11-14T09:20:27;9.90;94.30
32366;DHT22;18837;46.832;16.838;2022-11-14T09:22:57;9.90;94.10
32366;DHT22;18837;46.832;16.838;2022-11-14T09:32:00;9.90;95.60
32366;DHT22;18837;46.832;16.838;2022-11-14T09:34:26;9.90;94.10
32366;DHT22;18837;46.832;16.838;2022-11-14T09:36:52;9.90;94.10
32366;DHT22;18837;46.832;16.838;2022-11-14T09:39:17;9.90;94.00
32366;DHT22;18837;46.832;16.838;2022-11-14T09:47:42;10.00;95.60
32366;DHT22;18837;46.832;16.838;2022-11-14T09:50:18;10.10;94.00
32366;DHT22;18837;46.832;16.838;2022-11-14T09:52:48;10.10;93.90
32366;DHT22;18837;46.832;16.838;2022-11-14T09:55:19;10.10;93.80
32366;DHT22;18837;46.832;16.838;2022-11-14T09:57:46;10.10;94.00
32366;DHT22;18837;46.832;16.838;2022-11-14T10:07:00;10.00;95.50
32366;DHT22;18837;46.832;16.838;2022-11-14T10:12:34;10.00;95.40
32366;DHT22;18837;46.832;16.838;2022-11-14T10:17:56;10.00;95.70
32366;DHT22;18837;46.832;16.838;2022-11-14T10:26:27;10.00;93.70
32366;DHT22;18837;46.832;16.838;2022-11-14T10:32:02;10.00;95.30
32366;DHT22;18837;46.832;16.838;2022-11-14T10:41:20;10.20;95.60
32366;DHT22;18837;46.832;16.838;2022-11-14T10:43:48;10.30;94.00
32366;DHT22;18837;46.832;16.838;2022-11-14T10:46:35;10.30;94.00
32366;DHT22;18837;46.832;16.838;2022-11-14T10:49:14;10.30;95.40
32366;DHT22;18837;46.832;16.838;2022-11-14T10:51:46;10.20;93.80
32366;DHT22;18837;46.832;16.838;2022-11-14T10:54:54;10.20;93.90
32366;DHT22;18837;46.832;16.838;2022-11-14T10:57:21;10.20;95.60
32366;DHT22;18837;46.832;16.838;2022-11-14T10:59:48;10.20;94.20
32366;DHT22;18837;46.832;16.838;2022-11-14T11:02:14;10.20;94.10
32366;DHT22;18837;46.832;16.838;2022-11-14T11:04:42;10.20;94.10
32366;DHT22;18837;46.832;16.838;2022-11-14T11:10:05;10.20;94.10
32366;DHT22;18837;46.832;16.838;2022-11-14T11:13:49;10.20;95.50
32366;DHT22;18837;46.832;16.838;2022-11-14T11:16:20;10.10;95.70
32366;DHT22;18837;46.832;16.838;2022-11-14T11:18:46;10.10;93.60
32366;DHT22;18837;46.832;16.838;2022-11-14T11:21:17;10.20;93.70
32366;DHT22;18837;46.832;16.838;2022-11-14T11:26:28;10.20;94.20
32366;DHT22;18837;46.832;16.838;2022-11-14T11:32:07;10.30;95.50
32366;DHT22;18837;46.832;16.838;2022-11-14T11:34:34;10.40;93.80
32366;DHT22;18837;46.832;16.838;2022-11-14T11:37:02;10.50;93.80
32366;DHT22;18837;46.832;16.838;2022-11-14T11:39:40;10.40;93.50
32366;DHT22;18837;46.832;16.838;2022-11-14T11:42:13;10.40;94.10
32366;DHT22;18837;46.832;16.838;2022-11-14T11:48:21;10.40;95.50
32366;DHT22;18837;46.832;16.838;2022-11-14T11:50:48;10.30;93.70
32366;DHT22;18837;46.832;16.838;2022-11-14T11:53:24;10.30;93.80
32366;DHT22;18837;46.832;16.838;2022-11-14T11:55:58;10.30;95.50
32366;DHT22;18837;46.832;16.838;2022-11-14T11:58:36;10.30;93.70
32366;DHT22;18837;46.832;16.838;2022-11-14T12:01:07;10.30;93.90
32366;DHT22;18837;46.832;16.838;2022-11-14T12:04:02;10.30;93.80
32366;DHT22;18837;46.832;16.838;2022-11-14T12:06:33;10.30;95.50
32366;DHT22;18837;46.832;16.838;2022-11-14T12:11:37;10.30;95.50
32366;DHT22;18837;46.832;16.838;2022-11-14T12:17:22;10.30;95.50
32366;DHT22;18837;46.832;16.838;2022-11-14T12:32:14;10.50;95.30
32366;DHT22;18837;46.832;16.838;2022-11-14T12:34:44;10.50;93.40
32366;DHT22;18837;46.832;16.838;2022-11-14T12:40:34;10.50;95.30
32366;DHT22;18837;46.832;16.838;2022-11-14T12:43:03;10.40;93.70
32366;DHT22;18837;46.832;16.838;2022-11-14T12:48:22;10.40;93.70
32366;DHT22;18837;46.832;16.838;2022-11-14T12:50:54;10.40;95.30
32366;DHT22;18837;46.832;16.838;2022-11-14T12:59:56;10.30;95.40
32366;DHT22;18837;46.832;16.838;2022-11-14T13:08:32;10.30;95.40
32366;DHT22;18837;46.832;16.838;2022-11-14T13:14:48;10.30;95.40
32366;DHT22;18837;46.832;16.838;2022-11-14T13:17:34;10.40;95.30
32366;DHT22;18837;46.832;16.838;2022-11-14T13:35:31;10.40;95.20
32366;DHT22;18837;46.832;16.838;2022-11-14T13:38:16;10.40;95.30
32366;DHT22;18837;46.832;16.838;2022-11-14T13:50:07;10.30;95.40
32366;DHT22;18837;46.832;16.838;2022-11-14T14:11:59;10.30;95.60
32366;DHT22;18837;46.832;16.838;2022-11-14T14:14:47;10.40;95.40
32366;DHT22;18837;46.832;16.838;2022-11-14T14:29:20;10.30;95.30
32366;DHT22;18837;46.832;16.838;2022-11-14T14:31:47;10.30;93.60
32366;DHT22;18837;46.832;16.838;2022-11-14T14:34:22;10.20;93.70
32366;DHT22;18837;46.832;16.838;2022-11-14T14:37:18;10.20;93.60
32366;DHT22;18837;46.832;16.838;2022-11-14T14:43:34;10.20;95.50
32366;DHT22;18837;46.832;16.838;2022-11-14T14:46:03;10.20;95.50
32366;DHT22;18837;46.832;16.838;2022-11-14T14:48:30;10.10;95.40
32366;DHT22;18837;46.832;16.838;2022-11-14T14:50:59;10.20;93.90
32366;DHT22;18837;46.832;16.838;2022-11-14T14:53:33;10.20;94.30
32366;DHT22;18837;46.832;16.838;2022-11-14T14:56:27;10.20;94.00
32366;DHT22;18837;46.832;16.838;2022-11-14T14:58:53;10.20;95.50
32366;DHT22;18837;46.832;16.838;2022-11-14T15:01:31;10.20;94.00
32366;DHT22;18837;46.832;16.838;2022-11-14T15:04:06;10.20;95.40
32366;DHT22;18837;46.832;16.838;2022-11-14T15:06:38;10.20;95.50
32366;DHT22;18837;46.832;16.838;2022-11-14T15:09:22;10.20;95.50
32366;DHT22;18837;46.832;16.838;2022-11-14T15:12:16;10.20;93.80
32366;DHT22;18837;46.832;16.838;2022-11-14T15:18:07;10.20;95.50
32366;DHT22;18837;46.832;16.838;2022-11-14T15:20:38;10.10;93.70
32366;DHT22;18837;46.832;16.838;2022-11-14T15:23:21;10.20;93.80
32366;DHT22;18837;46.832;16.838;2022-11-14T15:25:47;10.70;95.50
32366;DHT22;18837;46.832;16.838;2022-11-14T15:28:16;10.10;93.40
32366;DHT22;18837;46.832;16.838;2022-11-14T15:31:03;10.10;93.90
32366;DHT22;18837;46.832;16.838;2022-11-14T15:33:32;10.10;94.10
32366;DHT22;18837;46.832;16.838;2022-11-14T15:36:24;10.10;94.20
32366;DHT22;18837;46.832;16.838;2022-11-14T15:39:04;10.00;93.90
32366;DHT22;18837;46.832;16.838;2022-11-14T15:41:31;10.00;95.50
32366;DHT22;18837;46.832;16.838;2022-11-14T15:43:58;10.10;94.00
32366;DHT22;18837;46.832;16.838;2022-11-14T15:53:03;10.00;95.60
32366;DHT22;18837;46.832;16.838;2022-11-14T15:55:30;10.00;94.00
32366;DHT22;18837;46.832;16.838;2022-11-14T15:57:56;10.00;93.90
32366;DHT22;18837;46.832;16.838;2022-11-14T16:00:25;10.10;93.90
32366;DHT22;18837;46.832;16.838;2022-11-14T16:02:54;9.70;95.30
32366;DHT22;18837;46.832;16.838;2022-11-14T16:05:44;10.00;93.70
32366;DHT22;18837;46.832;16.838;2022-11-14T16:08:17;10.10;95.50
32366;DHT22;18837;46.832;16.838;2022-11-14T16:10:46;10.10;95.60
32366;DHT22;18837;46.832;16.838;2022-11-14T16:13:14;10.00;92.70
32366;DHT22;18837;46.832;16.838;2022-11-14T16:15:40;10.00;92.20
32366;DHT22;18837;46.832;16.838;2022-11-14T16:18:06;10.00;93.20
32366;DHT22;18837;46.832;16.838;2022-11-14T16:20:32;10.00;93.30
32366;DHT22;18837;46.832;16.838;2022-11-14T16:27:02;10.00;95.50
32366;DHT22;18837;46.832;16.838;2022-11-14T16:29:28;10.00;95.60
32366;DHT22;18837;46.832;16.838;2022-11-14T16:32:00;9.90;93.10
32366;DHT22;18837;46.832;16.838;2022-11-14T16:34:26;9.90;93.20
32366;DHT22;18837;46.832;16.838;2022-11-14T16:37:01;9.90;92.90
32366;DHT22;18837;46.832;16.838;2022-11-14T16:39:27;9.90;93.50
32366;DHT22;18837;46.832;16.838;2022-11-14T16:42:14;9.80;92.90
32366;DHT22;18837;46.832;16.838;2022-11-14T16:44:40;9.90;95.60
32366;DHT22;18837;46.832;16.838;2022-11-14T16:47:06;9.90;93.60
32366;DHT22;18837;46.832;16.838;2022-11-14T16:49:31;9.90;93.90
32366;DHT22;18837;46.832;16.838;2022-11-14T16:51:59;10.00;94.00
32366;DHT22;18837;46.832;16.838;2022-11-14T16:54:33;9.90;93.50
32366;DHT22;18837;46.832;16.838;2022-11-14T17:00:54;10.00;95.60
32366;DHT22;18837;46.832;16.838;2022-11-14T17:03:21;10.00;95.60
32366;DHT22;18837;46.832;16.838;2022-11-14T17:05:50;10.00;93.10
32366;DHT22;18837;46.832;16.838;2022-11-14T17:08:16;10.00;93.80
32366;DHT22;18837;46.832;16.838;2022-11-14T17:10:44;9.90;93.90
32366;DHT22;18837;46.832;16.838;2022-11-14T17:13:11;10.00;94.00
32366;DHT22;18837;46.832;16.838;2022-11-14T17:16:00;9.90;93.90
32366;DHT22;18837;46.832;16.838;2022-11-14T17:18:26;10.00;95.70
32366;DHT22;18837;46.832;16.838;2022-11-14T17:20:52;9.90;93.20
32366;DHT22;18837;46.832;16.838;2022-11-14T17:23:18;9.90;93.80
32366;DHT22;18837;46.832;16.838;2022-11-14T17:26:14;9.80;93.00
32366;DHT22;18837;46.832;16.838;2022-11-14T17:28:45;9.80;95.50
32366;DHT22;18837;46.832;16.838;2022-11-14T18:26:23;9.80;95.60
32366;DHT22;18837;46.832;16.838;2022-11-14T18:28:56;9.80;94.00
32366;DHT22;18837;46.832;16.838;2022-11-14T18:31:26;9.80;94.20
32366;DHT22;18837;46.832;16.838;2022-11-14T18:34:08;9.80;94.00
32366;DHT22;18837;46.832;16.838;2022-11-14T18:36:45;10.00;95.60
32366;DHT22;18837;46.832;16.838;2022-11-14T19:13:03;9.80;95.60
32366;DHT22;18837;46.832;16.838;2022-11-14T19:22:20;9.80;95.50
32366;DHT22;18837;46.832;16.838;2022-11-14T19:24:46;9.70;93.30
32366;DHT22;18837;46.832;16.838;2022-11-14T19:27:15;9.80;93.70
32366;DHT22;18837;46.832;16.838;2022-11-14T19:40:08;9.90;95.40
32366;DHT22;18837;46.832;16.838;2022-11-14T19:42:34;9.90;95.10
32366;DHT22;18837;46.832;16.838;2022-11-14T19:45:00;9.90;93.40
32366;DHT22;18837;46.832;16.838;2022-11-14T19:47:25;9.90;93.80
32366;DHT22;18837;46.832;16.838;2022-11-14T19:53:36;9.90;95.50
32366;DHT22;18837;46.832;16.838;2022-11-14T19:58:42;9.80;95.40
32366;DHT22;18837;46.832;16.838;2022-11-14T20:01:16;9.80;93.90
32366;DHT22;18837;46.832;16.838;2022-11-14T20:03:43;9.80;95.20
32366;DHT22;18837;46.832;16.838;2022-11-14T20:06:14;9.80;93.60
32366;DHT22;18837;46.832;16.838;2022-11-14T20:09:06;9.80;94.10
32366;DHT22;18837;46.832;16.838;2022-11-14T20:11:36;9.80;95.70
32366;DHT22;18837;46.832;16.838;2022-11-14T20:14:02;9.80;93.90
32366;DHT22;18837;46.832;16.838;2022-11-14T21:55:06;9.70;95.80
32366;DHT22;18837;46.832;16.838;2022-11-14T21:57:32;9.70;93.60
32366;DHT22;18837;46.832;16.838;2022-11-14T21:59:57;9.70;93.10
32366;DHT22;18837;46.832;16.838;2022-11-14T22:02:23;9.70;93.70
32366;DHT22;18837;46.832;16.838;2022-11-14T22:05:07;9.70;94.60
32366;DHT22;18837;46.832;16.838;2022-11-14T22:11:29;8.70;95.50
32366;DHT22;18837;46.832;16.838;2022-11-14T22:13:58;9.70;95.70
32366;DHT22;18837;46.832;16.838;2022-11-14T22:19:50;9.70;95.70
32366;DHT22;18837;46.832;16.838;2022-11-14T22:30:22;9.80;95.60
32366;DHT22;18837;46.832;16.838;2022-11-14T22:32:50;9.80;93.80
32366;DHT22;18837;46.832;16.838;2022-11-14T22:35:22;9.60;93.80
32366;DHT22;18837;46.832;16.838;2022-11-14T22:37:48;9.70;93.20
32366;DHT22;18837;46.832;16.838;2022-11-14T22:47:02;9.70;95.70
32366;DHT22;18837;46.832;16.838;2022-11-14T22:49:31;9.70;94.30
32366;DHT22;18837;46.832;16.838;2022-11-14T22:52:01;9.60;93.40
32366;DHT22;18837;46.832;16.838;2022-11-14T22:54:30;8.20;95.20
32366;DHT22;18837;46.832;16.838;2022-11-14T22:56:59;9.70;92.80
